createdAt,value
2019-05-03T00:00:32.550Z,8.410339
2019-05-03T00:01:43.059Z,8.380127
2019-05-03T00:02:53.573Z,8.380127
2019-05-03T00:04:03.078Z,8.380127
2019-05-03T00:05:12.607Z,8.370056
2019-05-03T00:06:23.080Z,8.359985
2019-05-03T00:07:32.631Z,8.339844
2019-05-03T00:08:43.149Z,8.329773
2019-05-03T00:09:52.658Z,8.339844
2019-05-03T00:11:03.164Z,8.309631
2019-05-03T00:12:13.722Z,8.309631
2019-05-03T00:13:23.249Z,8.299561
2019-05-03T00:14:33.748Z,8.299561
2019-05-03T00:15:43.240Z,8.299561
2019-05-03T00:16:52.795Z,8.279419
2019-05-03T00:18:03.301Z,8.299561
2019-05-03T00:19:12.827Z,8.279419
2019-05-03T00:20:22.363Z,8.259277
2019-05-03T00:21:32.877Z,8.239136
2019-05-03T00:22:42.406Z,8.198853
2019-05-03T00:23:52.905Z,8.229065
2019-05-03T00:25:08.087Z,8.198853
2019-05-03T00:26:13.270Z,8.188782
2019-05-03T00:27:23.796Z,8.188782
2019-05-03T00:28:34.295Z,8.188782
2019-05-03T00:29:43.814Z,8.188782
2019-05-03T00:30:53.337Z,8.188782
2019-05-03T00:32:02.869Z,8.188782
2019-05-03T00:33:13.385Z,8.188782
2019-05-03T00:34:22.910Z,8.178711
2019-05-03T00:35:33.449Z,8.158569
2019-05-03T00:36:42.954Z,8.158569
2019-05-03T00:37:53.490Z,8.148499
2019-05-03T00:39:03.007Z,8.158569
2019-05-03T00:40:12.538Z,8.148499
2019-05-03T00:41:22.056Z,8.158569
2019-05-03T00:42:32.584Z,8.148499
2019-05-03T00:43:43.115Z,8.158569
2019-05-03T00:44:52.642Z,8.178711
2019-05-03T00:46:03.164Z,8.158569
2019-05-03T00:47:13.697Z,8.158569
2019-05-03T00:48:23.233Z,8.148499
2019-05-03T00:49:33.784Z,8.128357
2019-05-03T00:50:43.321Z,8.128357
2019-05-03T00:51:52.863Z,8.148499
2019-05-03T00:53:03.393Z,8.128357
2019-05-03T00:54:12.923Z,8.148499
2019-05-03T00:55:23.430Z,8.148499
2019-05-03T00:56:33.934Z,8.128357
2019-05-03T00:57:44.453Z,8.128357
2019-05-03T00:58:53.971Z,8.148499
2019-05-03T01:00:03.475Z,8.158569
2019-05-03T01:01:13.008Z,8.148499
2019-05-03T01:02:26.161Z,8.148499
2019-05-03T01:03:33.073Z,8.128357
2019-05-03T01:04:42.738Z,8.128357
2019-05-03T01:05:53.135Z,8.148499
2019-05-03T01:07:02.673Z,8.148499
2019-05-03T01:08:12.725Z,8.128357
2019-05-03T01:09:22.716Z,8.148499
2019-05-03T01:10:33.042Z,8.148499
2019-05-03T01:11:42.796Z,8.148499
2019-05-03T01:12:53.331Z,8.158569
2019-05-03T01:14:02.858Z,8.178711
2019-05-03T01:15:12.432Z,8.148499
2019-05-03T01:16:22.620Z,8.128357
2019-05-03T01:17:32.420Z,8.128357
2019-05-03T01:18:42.927Z,8.128357
2019-05-03T01:19:53.440Z,8.118286
2019-05-03T01:21:03.932Z,8.118286
2019-05-03T01:22:13.489Z,8.118286
2019-05-03T01:23:23.003Z,8.118286
2019-05-03T01:24:33.513Z,8.118286
2019-05-03T01:25:44.023Z,8.118286
2019-05-03T01:26:53.528Z,8.098145
2019-05-03T01:28:03.070Z,8.098145
2019-05-03T01:29:12.578Z,8.088074
2019-05-03T01:30:23.078Z,8.098145
2019-05-03T01:31:32.593Z,8.098145
2019-05-03T01:32:43.121Z,8.088074
2019-05-03T01:33:53.635Z,8.088074
2019-05-03T01:35:03.467Z,8.098145
2019-05-03T01:36:13.671Z,8.088074
2019-05-03T01:37:24.183Z,8.098145
2019-05-03T01:38:33.694Z,8.098145
2019-05-03T01:39:43.231Z,8.088074
2019-05-03T01:40:53.755Z,8.088074
2019-05-03T01:42:03.245Z,8.088074
2019-05-03T01:43:12.818Z,8.098145
2019-05-03T01:44:23.349Z,8.118286
2019-05-03T01:45:33.860Z,8.118286
2019-05-03T01:46:43.388Z,8.098145
2019-05-03T01:47:52.923Z,8.098145
2019-05-03T01:49:02.453Z,8.118286
2019-05-03T01:50:12.950Z,8.118286
2019-05-03T01:51:23.448Z,8.128357
2019-05-03T01:52:33.969Z,8.128357
2019-05-03T01:53:43.499Z,8.148499
2019-05-03T01:54:53.029Z,8.128357
2019-05-03T01:56:03.736Z,8.128357
2019-05-03T01:57:13.055Z,8.128357
2019-05-03T01:58:22.604Z,8.128357
2019-05-03T01:59:33.118Z,8.148499
2019-05-03T02:00:43.617Z,8.148499
2019-05-03T02:01:53.113Z,8.148499
2019-05-03T02:03:02.654Z,8.148499
2019-05-03T02:04:13.171Z,8.158569
2019-05-03T02:05:22.697Z,8.158569
2019-05-03T02:06:33.204Z,8.178711
2019-05-03T02:07:43.712Z,8.178711
2019-05-03T02:08:53.250Z,8.158569
2019-05-03T02:10:02.891Z,8.158569
2019-05-03T02:11:12.257Z,8.178711
2019-05-03T02:12:22.769Z,8.178711
2019-05-03T02:13:33.288Z,8.188782
2019-05-03T02:14:43.805Z,8.229065
2019-05-03T02:15:53.313Z,8.198853
2019-05-03T02:17:02.849Z,8.229065
2019-05-03T02:18:15.109Z,8.229065
2019-05-03T02:19:22.882Z,8.229065
2019-05-03T02:20:33.395Z,8.229065
2019-05-03T02:21:42.929Z,8.198853
2019-05-03T02:22:53.467Z,8.198853
2019-05-03T02:24:03.972Z,8.198853
2019-05-03T02:25:13.485Z,8.229065
2019-05-03T02:26:22.980Z,8.239136
2019-05-03T02:27:32.619Z,8.239136
2019-05-03T02:28:43.034Z,8.198853
2019-05-03T02:29:53.574Z,8.229065
2019-05-03T02:31:04.059Z,8.229065
2019-05-03T02:32:14.600Z,8.239136
2019-05-03T02:33:24.131Z,8.229065
2019-05-03T02:34:33.656Z,8.229065
2019-05-03T02:35:44.268Z,8.239136
2019-05-03T02:36:54.001Z,8.229065
2019-05-03T02:38:04.279Z,8.259277
2019-05-03T02:39:13.814Z,8.259277
2019-05-03T02:40:24.686Z,8.259277
2019-05-03T02:41:34.788Z,8.239136
2019-05-03T02:42:46.310Z,8.259277
2019-05-03T02:43:56.192Z,8.239136
2019-05-03T02:45:06.338Z,8.259277
2019-05-03T02:46:16.661Z,8.269348
2019-05-03T02:47:26.716Z,8.259277
2019-05-03T02:48:36.898Z,8.269348
2019-05-03T02:49:46.399Z,8.259277
2019-05-03T02:50:56.917Z,8.259277
2019-05-03T02:52:07.427Z,8.269348
2019-05-03T02:53:16.949Z,8.279419
2019-05-03T02:54:27.042Z,8.279419
2019-05-03T02:55:36.438Z,8.279419
2019-05-03T02:56:46.450Z,8.299561
2019-05-03T02:57:56.960Z,8.279419
2019-05-03T02:59:06.554Z,8.269348
2019-05-03T03:00:17.001Z,8.279419
2019-05-03T03:01:26.772Z,8.279419
2019-05-03T03:02:37.013Z,8.279419
2019-05-03T03:03:46.587Z,8.279419
2019-05-03T03:04:57.086Z,8.279419
2019-05-03T03:06:07.058Z,8.269348
2019-05-03T03:07:16.136Z,8.279419
2019-05-03T03:08:26.652Z,8.279419
2019-05-03T03:09:37.150Z,8.279419
2019-05-03T03:10:46.663Z,8.269348
2019-05-03T03:11:56.171Z,8.279419
2019-05-03T03:13:06.663Z,8.279419
2019-05-03T03:14:17.196Z,8.269348
2019-05-03T03:15:26.713Z,8.259277
2019-05-03T03:16:37.264Z,8.269348
2019-05-03T03:17:46.773Z,8.259277
2019-05-03T03:18:57.247Z,8.259277
2019-05-03T03:20:07.777Z,8.259277
2019-05-03T03:21:18.307Z,8.269348
2019-05-03T03:22:27.796Z,8.269348
2019-05-03T03:23:37.324Z,8.269348
2019-05-03T03:24:46.848Z,8.239136
2019-05-03T03:25:56.383Z,8.239136
2019-05-03T03:27:06.904Z,8.239136
2019-05-03T03:28:17.404Z,8.239136
2019-05-03T03:29:26.922Z,8.229065
2019-05-03T03:30:37.866Z,8.229065
2019-05-03T03:31:48.118Z,8.239136
2019-05-03T03:32:57.872Z,8.259277
2019-05-03T03:34:08.684Z,8.239136
2019-05-03T03:35:20.581Z,8.239136
2019-05-03T03:36:43.525Z,8.239136
2019-05-03T03:37:39.488Z,8.239136
2019-05-03T03:38:48.980Z,8.239136
2019-05-03T03:39:58.494Z,8.259277
2019-05-03T03:41:08.002Z,8.259277
2019-05-03T03:42:17.544Z,8.259277
2019-05-03T03:43:27.060Z,8.269348
2019-05-03T03:44:36.736Z,8.279419
2019-05-03T03:45:46.079Z,8.269348
2019-05-03T03:46:56.635Z,8.279419
2019-05-03T03:48:06.150Z,8.269348
2019-05-03T03:49:16.651Z,8.269348
2019-05-03T03:50:27.187Z,8.279419
2019-05-03T03:51:36.702Z,8.279419
2019-05-03T03:52:46.229Z,8.279419
2019-05-03T03:53:56.748Z,8.269348
2019-05-03T03:55:07.268Z,8.279419
2019-05-03T03:56:16.792Z,8.309631
2019-05-03T03:57:26.324Z,8.279419
2019-05-03T03:58:36.825Z,8.279419
2019-05-03T03:59:47.342Z,8.299561
2019-05-03T04:00:56.860Z,8.309631
2019-05-03T04:02:07.383Z,8.299561
2019-05-03T04:03:16.902Z,8.299561
2019-05-03T04:04:26.640Z,8.329773
2019-05-03T04:05:36.979Z,8.309631
2019-05-03T04:06:47.449Z,8.329773
2019-05-03T04:07:58.017Z,8.339844
2019-05-03T04:09:07.552Z,8.339844
2019-05-03T04:10:17.063Z,8.359985
2019-05-03T04:11:26.570Z,8.380127
2019-05-03T04:12:36.111Z,8.359985
2019-05-03T04:13:46.613Z,8.380127
2019-05-03T04:14:57.121Z,8.410339
2019-05-03T04:16:06.642Z,8.410339
2019-05-03T04:17:17.171Z,8.410339
2019-05-03T04:18:26.675Z,8.410339
2019-05-03T04:19:37.166Z,8.42041
2019-05-03T04:20:46.680Z,8.440552
2019-05-03T04:21:57.176Z,8.440552
2019-05-03T04:23:06.751Z,8.460693
2019-05-03T04:24:17.247Z,8.480835
2019-05-03T04:25:26.773Z,8.511047
2019-05-03T04:26:36.287Z,8.480835
2019-05-03T04:27:45.954Z,8.480835
2019-05-03T04:28:56.362Z,8.511047
2019-05-03T04:30:06.051Z,8.490906
2019-05-03T04:31:16.425Z,8.480835
2019-05-03T04:32:28.878Z,8.480835
2019-05-03T04:33:36.447Z,8.480835
2019-05-03T04:34:45.966Z,8.460693
2019-05-03T04:35:56.477Z,8.460693
2019-05-03T04:37:05.971Z,8.490906
2019-05-03T04:38:16.610Z,8.480835
2019-05-03T04:39:27.048Z,8.480835
2019-05-03T04:40:36.553Z,8.480835
2019-05-03T04:41:46.073Z,8.480835
2019-05-03T04:42:56.593Z,8.460693
2019-05-03T04:44:07.112Z,8.490906
2019-05-03T04:45:16.777Z,8.490906
2019-05-03T04:46:26.316Z,8.490906
2019-05-03T04:47:36.671Z,8.521118
2019-05-03T04:48:47.186Z,8.531189
2019-05-03T04:49:56.675Z,8.551331
2019-05-03T04:51:06.271Z,8.561401
2019-05-03T04:52:16.752Z,8.561401
2019-05-03T04:53:27.208Z,8.581543
2019-05-03T04:54:36.704Z,8.581543
2019-05-03T04:55:46.932Z,8.611755
2019-05-03T04:56:56.772Z,8.581543
2019-05-03T04:58:07.295Z,8.581543
2019-05-03T04:59:16.815Z,8.611755
2019-05-03T05:00:26.324Z,8.611755
2019-05-03T05:01:36.843Z,8.611755
2019-05-03T05:02:47.360Z,8.631897
2019-05-03T05:03:56.889Z,8.641968
2019-05-03T05:05:06.411Z,8.662109
2019-05-03T05:06:15.912Z,8.67218
2019-05-03T05:07:26.543Z,8.67218
2019-05-03T05:08:36.184Z,8.67218
2019-05-03T05:09:46.449Z,8.662109
2019-05-03T05:10:56.952Z,8.67218
2019-05-03T05:12:07.451Z,8.692322
2019-05-03T05:13:16.984Z,8.692322
2019-05-03T05:14:26.506Z,8.67218
2019-05-03T05:15:36.015Z,8.67218
2019-05-03T05:16:46.827Z,8.67218
2019-05-03T05:17:57.043Z,8.702393
2019-05-03T05:19:06.568Z,8.702393
2019-05-03T05:20:16.079Z,8.702393
2019-05-03T05:21:25.588Z,8.712463
2019-05-03T05:22:36.105Z,8.742676
2019-05-03T05:23:46.616Z,8.742676
2019-05-03T05:24:56.120Z,8.782959
2019-05-03T05:26:05.696Z,8.813171
2019-05-03T05:27:15.134Z,8.823242
2019-05-03T05:28:25.661Z,8.843384
2019-05-03T05:29:36.220Z,8.883667
2019-05-03T05:30:45.769Z,8.883667
2019-05-03T05:31:55.297Z,8.883667
2019-05-03T05:33:05.808Z,8.873596
2019-05-03T05:34:15.462Z,8.883667
2019-05-03T05:35:25.854Z,8.873596
2019-05-03T05:36:36.371Z,8.944092
2019-05-03T05:37:45.868Z,8.954163
2019-05-03T05:38:55.408Z,8.994446
2019-05-03T05:40:05.913Z,9.004517
2019-05-03T05:41:16.429Z,9.0448
2019-05-03T05:42:25.950Z,9.075012
2019-05-03T05:43:35.755Z,9.095154
2019-05-03T05:44:46.011Z,9.125366
2019-05-03T05:45:58.839Z,9.205933
2019-05-03T05:47:06.096Z,9.216003
2019-05-03T05:48:15.610Z,9.226074
2019-05-03T05:49:25.946Z,9.256287
2019-05-03T05:50:35.658Z,9.246216
2019-05-03T05:51:46.172Z,9.276428
2019-05-03T05:52:55.700Z,9.226074
2019-05-03T05:54:06.223Z,9.246216
2019-05-03T05:55:15.732Z,9.276428
2019-05-03T05:56:26.250Z,9.276428
2019-05-03T05:57:35.769Z,9.276428
2019-05-03T05:58:45.319Z,9.306641
2019-05-03T05:59:55.846Z,9.316711
2019-05-03T06:01:05.570Z,9.246216
2019-05-03T06:02:15.897Z,9.246216
2019-05-03T06:03:26.420Z,9.246216
2019-05-03T06:04:35.955Z,9.216003
2019-05-03T06:05:46.482Z,9.205933
2019-05-03T06:06:55.990Z,9.17572
2019-05-03T06:08:05.532Z,9.17572
2019-05-03T06:09:16.058Z,9.125366
2019-05-03T06:10:26.574Z,9.095154
2019-05-03T06:11:36.103Z,9.095154
2019-05-03T06:12:45.631Z,9.105225
2019-05-03T06:13:55.204Z,9.105225
2019-05-03T06:15:05.720Z,9.155579
2019-05-03T06:16:16.246Z,9.17572
2019-05-03T06:17:25.747Z,9.155579
2019-05-03T06:18:35.410Z,9.125366
2019-05-03T06:19:45.817Z,9.135437
2019-05-03T06:20:55.350Z,9.125366
2019-05-03T06:22:05.874Z,9.155579
2019-05-03T06:23:16.409Z,9.226074
2019-05-03T06:24:25.982Z,9.216003
2019-05-03T06:25:35.539Z,9.226074
2019-05-03T06:26:46.057Z,9.216003
2019-05-03T06:27:55.589Z,9.216003
2019-05-03T06:29:06.138Z,9.216003
2019-05-03T06:30:16.689Z,9.185791
2019-05-03T06:31:26.259Z,9.155579
2019-05-03T06:32:35.775Z,9.105225
2019-05-03T06:33:45.309Z,9.0448
2019-05-03T06:34:55.831Z,9.0448
2019-05-03T06:36:05.368Z,9.0448
2019-05-03T06:37:15.910Z,9.0448
2019-05-03T06:38:26.430Z,9.064941
2019-05-03T06:39:35.967Z,9.0448
2019-05-03T06:40:46.493Z,9.034729
2019-05-03T06:41:56.017Z,9.0448
2019-05-03T06:43:09.576Z,9.064941
2019-05-03T06:44:19.128Z,9.064941
2019-05-03T06:45:27.578Z,9.0448
2019-05-03T06:46:37.111Z,9.034729
2019-05-03T06:47:49.853Z,9.064941
2019-05-03T06:48:56.155Z,9.075012
2019-05-03T06:50:06.660Z,9.105225
2019-05-03T06:51:19.957Z,9.155579
2019-05-03T06:52:29.244Z,9.185791
2019-05-03T06:53:36.291Z,9.246216
2019-05-03T06:54:46.781Z,9.316711
2019-05-03T06:55:56.305Z,9.336853
2019-05-03T06:57:09.409Z,9.457703
2019-05-03T06:58:29.762Z,9.538269
2019-05-03T06:59:25.889Z,9.54834
2019-05-03T07:00:36.424Z,9.54834
2019-05-03T07:01:45.983Z,9.477844
2019-05-03T07:02:56.540Z,9.467773
2019-05-03T07:04:06.070Z,9.437561
2019-05-03T07:05:15.601Z,9.457703
2019-05-03T07:06:34.268Z,9.467773
2019-05-03T07:07:36.699Z,9.437561
2019-05-03T07:08:47.359Z,9.457703
2019-05-03T07:09:57.566Z,9.42749
2019-05-03T07:11:08.533Z,9.437561
2019-05-03T07:12:18.077Z,9.437561
2019-05-03T07:13:27.584Z,9.477844
2019-05-03T07:14:37.412Z,9.497986
2019-05-03T07:15:47.912Z,9.508057
2019-05-03T07:16:57.458Z,9.608765
2019-05-03T07:18:06.988Z,9.618835
2019-05-03T07:19:16.519Z,9.588623
2019-05-03T07:20:26.060Z,9.588623
2019-05-03T07:21:36.581Z,9.588623
2019-05-03T07:22:46.094Z,9.608765
2019-05-03T07:23:56.606Z,9.588623
2019-05-03T07:25:06.155Z,9.54834
2019-05-03T07:26:15.686Z,9.538269
2019-05-03T07:27:26.224Z,9.538269
2019-05-03T07:28:46.112Z,9.538269
2019-05-03T07:29:46.239Z,9.578552
2019-05-03T07:30:56.780Z,9.618835
2019-05-03T07:32:06.301Z,9.618835
2019-05-03T07:33:16.823Z,9.638977
2019-05-03T07:34:26.386Z,9.578552
2019-05-03T07:35:35.934Z,9.477844
2019-05-03T07:36:45.464Z,9.42749
2019-05-03T07:37:56.002Z,9.367065
2019-05-03T07:39:06.538Z,9.316711
2019-05-03T07:40:16.053Z,9.306641
2019-05-03T07:41:27.299Z,9.316711
2019-05-03T07:42:36.127Z,9.286499
2019-05-03T07:43:45.637Z,9.276428
2019-05-03T07:44:56.152Z,9.306641
2019-05-03T07:46:05.759Z,9.286499
2019-05-03T07:47:15.220Z,9.216003
2019-05-03T07:48:25.745Z,9.185791
2019-05-03T07:49:36.265Z,9.226074
2019-05-03T07:50:45.784Z,9.246216
2019-05-03T07:51:55.452Z,9.256287
2019-05-03T07:53:05.834Z,9.286499
2019-05-03T07:54:16.359Z,9.407349
2019-05-03T07:55:25.921Z,9.437561
2019-05-03T07:56:36.428Z,9.508057
2019-05-03T07:57:45.929Z,9.467773
2019-05-03T07:59:00.462Z,9.508057
2019-05-03T08:00:06.928Z,9.578552
2019-05-03T08:01:16.465Z,9.638977
2019-05-03T08:02:27.570Z,9.659119
2019-05-03T08:03:36.549Z,9.689331
2019-05-03T08:04:46.075Z,9.719543
2019-05-03T08:05:55.608Z,9.719543
2019-05-03T08:07:05.132Z,9.769897
2019-05-03T08:08:15.625Z,9.820251
2019-05-03T08:09:26.134Z,9.769897
2019-05-03T08:10:35.665Z,9.67926
2019-05-03T08:11:46.186Z,9.67926
2019-05-03T08:12:55.705Z,9.649048
2019-05-03T08:14:05.235Z,9.67926
2019-05-03T08:15:15.826Z,9.769897
2019-05-03T08:16:25.375Z,9.870605
2019-05-03T08:17:35.807Z,10.011597
2019-05-03T08:18:45.766Z,10.152588
2019-05-03T08:19:55.844Z,10.283508
2019-05-03T08:21:06.397Z,10.354004
2019-05-03T08:22:15.906Z,10.525208
2019-05-03T08:23:30.129Z,10.625916
2019-05-03T08:24:35.938Z,10.716553
2019-05-03T08:25:45.485Z,10.837402
2019-05-03T08:26:56.031Z,10.958252
2019-05-03T08:28:05.548Z,11.109314
2019-05-03T08:29:19.086Z,11.109314
2019-05-03T08:30:25.566Z,11.099243
2019-05-03T08:31:36.136Z,11.109314
2019-05-03T08:32:46.647Z,11.038818
2019-05-03T08:33:56.165Z,11.048889
2019-05-03T08:35:05.695Z,10.988464
2019-05-03T08:36:16.251Z,10.92804
2019-05-03T08:37:27.952Z,10.80719
2019-05-03T08:38:35.326Z,10.55542
2019-05-03T08:39:45.873Z,10.464783
2019-05-03T08:40:56.436Z,10.313721
2019-05-03T08:42:05.953Z,10.253296
2019-05-03T08:43:15.719Z,10.313721
2019-05-03T08:44:26.026Z,10.4245
2019-05-03T08:45:36.543Z,10.565491
2019-05-03T08:46:47.286Z,10.585632
2019-05-03T08:47:56.667Z,10.736694
2019-05-03T08:49:06.201Z,10.80719
2019-05-03T08:50:21.140Z,10.857544
2019-05-03T08:51:26.254Z,10.837402
2019-05-03T08:52:35.779Z,10.897827
2019-05-03T08:53:46.294Z,10.897827
2019-05-03T08:54:56.783Z,10.857544
2019-05-03T08:56:06.311Z,10.776978
2019-05-03T08:57:16.830Z,10.867615
2019-05-03T08:58:26.357Z,10.968323
2019-05-03T08:59:35.959Z,11.018677
2019-05-03T09:00:45.594Z,11.069031
2019-05-03T09:01:55.913Z,11.079102
2019-05-03T09:03:06.461Z,10.968323
2019-05-03T09:04:15.998Z,10.968323
2019-05-03T09:05:26.508Z,10.958252
2019-05-03T09:06:37.062Z,10.958252
2019-05-03T09:07:46.582Z,10.958252
2019-05-03T09:08:57.162Z,10.887756
2019-05-03T09:10:05.626Z,10.93811
2019-05-03T09:11:16.130Z,11.119385
2019-05-03T09:12:26.627Z,11.361084
2019-05-03T09:13:36.189Z,11.733704
2019-05-03T09:14:48.283Z,12.237244
2019-05-03T09:15:55.495Z,12.609863
2019-05-03T09:17:05.818Z,12.720642
2019-05-03T09:18:17.420Z,12.750854
2019-05-03T09:19:26.837Z,12.911987
2019-05-03T09:20:36.352Z,13.002625
2019-05-03T09:21:45.866Z,13.083191
2019-05-03T09:22:55.383Z,13.133545
2019-05-03T09:24:05.914Z,12.9422
2019-05-03T09:25:16.436Z,12.539368
2019-05-03T09:26:29.041Z,12.368164
2019-05-03T09:27:35.541Z,12.116394
2019-05-03T09:28:45.467Z,11.985474
2019-05-03T09:29:55.884Z,11.733704
2019-05-03T09:31:06.120Z,11.371155
2019-05-03T09:32:16.645Z,11.230164
2019-05-03T09:33:26.189Z,10.968323
2019-05-03T09:34:36.689Z,10.666199
2019-05-03T09:35:47.194Z,10.354004
2019-05-03T09:36:56.732Z,10.041809
2019-05-03T09:38:06.254Z,9.739685
2019-05-03T09:39:15.773Z,9.638977
2019-05-03T09:40:25.274Z,9.477844
2019-05-03T09:41:35.789Z,9.356995
2019-05-03T09:42:46.325Z,9.226074
2019-05-03T09:43:55.884Z,9.135437
2019-05-03T09:45:05.413Z,9.125366
2019-05-03T09:46:15.986Z,9.135437
2019-05-03T09:47:26.487Z,9.135437
2019-05-03T09:48:36.021Z,9.17572
2019-05-03T09:49:46.539Z,9.306641
2019-05-03T09:50:57.047Z,9.387207
2019-05-03T09:52:08.386Z,9.477844
2019-05-03T09:53:17.100Z,9.659119
2019-05-03T09:54:26.646Z,9.80011
2019-05-03T09:55:36.180Z,9.689331
2019-05-03T09:56:55.190Z,9.638977
2019-05-03T09:57:56.248Z,9.578552
2019-05-03T09:59:06.777Z,9.497986
2019-05-03T10:00:16.275Z,9.437561
2019-05-03T10:01:25.781Z,9.477844
2019-05-03T10:02:35.367Z,9.588623
2019-05-03T10:03:45.861Z,9.649048
2019-05-03T10:04:55.550Z,9.618835
2019-05-03T10:06:04.937Z,9.719543
2019-05-03T10:07:15.531Z,9.739685
2019-05-03T10:08:26.010Z,9.830322
2019-05-03T10:09:36.531Z,9.830322
2019-05-03T10:10:46.044Z,9.860535
2019-05-03T10:11:55.594Z,9.971313
2019-05-03T10:13:14.099Z,10.021667
2019-05-03T10:14:16.718Z,10.05188
2019-05-03T10:15:26.234Z,10.132446
2019-05-03T10:16:35.763Z,10.092163
2019-05-03T10:17:45.930Z,10.092163
2019-05-03T10:18:55.889Z,9.971313
2019-05-03T10:20:05.430Z,9.981384
2019-05-03T10:21:15.960Z,9.991455
2019-05-03T10:22:26.511Z,10.021667
2019-05-03T10:23:36.009Z,10.021667
2019-05-03T10:24:46.521Z,10.041809
2019-05-03T10:25:56.038Z,9.991455
2019-05-03T10:27:05.742Z,9.981384
2019-05-03T10:28:16.099Z,10.021667
2019-05-03T10:29:25.640Z,10.122375
2019-05-03T10:30:35.478Z,10.223083
2019-05-03T10:31:45.724Z,10.354004
2019-05-03T10:32:55.255Z,10.4245
2019-05-03T10:34:06.005Z,10.444641
2019-05-03T10:35:16.308Z,10.464783
2019-05-03T10:36:25.803Z,10.525208
2019-05-03T10:37:36.349Z,10.494995
2019-05-03T10:38:46.223Z,10.55542
2019-05-03T10:39:56.380Z,10.55542
2019-05-03T10:41:06.887Z,10.595703
2019-05-03T10:42:16.400Z,10.706482
2019-05-03T10:43:25.950Z,10.716553
2019-05-03T10:44:36.461Z,10.635986
2019-05-03T10:45:45.974Z,10.585632
2019-05-03T10:46:56.506Z,10.666199
2019-05-03T10:48:06.044Z,10.716553
2019-05-03T10:49:16.567Z,10.776978
2019-05-03T10:50:26.083Z,10.897827
2019-05-03T10:51:35.962Z,11.038818
2019-05-03T10:52:46.131Z,11.079102
2019-05-03T10:53:56.656Z,11.18988
2019-05-03T10:55:06.180Z,11.18988
2019-05-03T10:56:22.476Z,11.169739
2019-05-03T10:57:27.208Z,11.079102
2019-05-03T10:58:37.210Z,11.119385
2019-05-03T10:59:46.276Z,11.220093
2019-05-03T11:00:56.861Z,11.169739
2019-05-03T11:02:06.301Z,11.18988
2019-05-03T11:03:15.822Z,11.099243
2019-05-03T11:04:25.362Z,11.018677
2019-05-03T11:05:35.878Z,10.958252
2019-05-03T11:06:46.384Z,10.837402
2019-05-03T11:07:55.903Z,10.867615
2019-05-03T11:09:05.700Z,10.958252
2019-05-03T11:10:15.940Z,10.958252
2019-05-03T11:11:26.465Z,11.109314
2019-05-03T11:12:35.980Z,11.099243
2019-05-03T11:13:45.546Z,11.119385
2019-05-03T11:14:55.095Z,11.250305
2019-05-03T11:16:05.570Z,11.43158
2019-05-03T11:17:15.125Z,11.451721
2019-05-03T11:18:25.668Z,11.663208
2019-05-03T11:19:35.182Z,11.874695
2019-05-03T11:20:45.694Z,12.025757
2019-05-03T11:21:55.237Z,12.166748
2019-05-03T11:23:06.075Z,12.217102
2019-05-03T11:24:15.292Z,12.06604
2019-05-03T11:25:25.793Z,11.904907
2019-05-03T11:26:35.312Z,11.864624
2019-05-03T11:27:45.809Z,11.864624
2019-05-03T11:29:00.362Z,11.93512
2019-05-03T11:30:05.868Z,12.146606
2019-05-03T11:31:16.444Z,12.277527
2019-05-03T11:32:25.939Z,12.44873
2019-05-03T11:33:36.472Z,12.720642
2019-05-03T11:34:45.981Z,12.911987
2019-05-03T11:35:56.506Z,13.052979
2019-05-03T11:37:06.015Z,13.083191
2019-05-03T11:38:15.529Z,13.012695
2019-05-03T11:39:26.088Z,12.982483
2019-05-03T11:40:35.608Z,13.083191
2019-05-03T11:41:46.122Z,13.002625
2019-05-03T11:42:55.641Z,13.042908
2019-05-03T11:44:05.176Z,13.012695
2019-05-03T11:45:15.667Z,13.002625
2019-05-03T11:46:25.185Z,13.153687
2019-05-03T11:47:35.692Z,13.163757
2019-05-03T11:48:46.222Z,12.982483
2019-05-03T11:49:56.721Z,12.932129
2019-05-03T11:51:06.241Z,12.911987
2019-05-03T11:52:17.409Z,12.871704
2019-05-03T11:53:26.273Z,13.083191
2019-05-03T11:54:36.783Z,13.113403
2019-05-03T11:55:46.571Z,13.153687
2019-05-03T11:56:55.794Z,13.19397
2019-05-03T11:58:06.323Z,13.042908
2019-05-03T11:59:15.866Z,12.851562
2019-05-03T12:00:26.796Z,12.801208
2019-05-03T12:01:35.905Z,12.831421
2019-05-03T12:02:45.407Z,12.801208
2019-05-03T12:03:55.954Z,12.861633
2019-05-03T12:05:05.483Z,12.82135
2019-05-03T12:06:16.074Z,12.871704
2019-05-03T12:07:38.171Z,12.901917
2019-05-03T12:08:36.005Z,12.781067
2019-05-03T12:09:45.557Z,12.730713
2019-05-03T12:10:58.473Z,12.599792
2019-05-03T12:12:05.556Z,12.358093
2019-05-03T12:13:16.099Z,12.348022
2019-05-03T12:14:25.659Z,12.207031
2019-05-03T12:15:35.312Z,12.31781
2019-05-03T12:17:16.482Z,12.44873
2019-05-03T12:17:58.701Z,12.458801
2019-05-03T12:19:16.045Z,12.56958
2019-05-03T12:20:18.685Z,12.539368
2019-05-03T12:21:28.908Z,12.388306
2019-05-03T12:22:38.820Z,12.358093
2019-05-03T12:23:49.495Z,12.267456
2019-05-03T12:24:58.710Z,12.096252
2019-05-03T12:26:12.871Z,11.985474
2019-05-03T12:27:19.239Z,11.904907
2019-05-03T12:28:28.758Z,11.864624
2019-05-03T12:29:38.290Z,11.804199
2019-05-03T12:30:47.778Z,11.622925
2019-05-03T12:31:57.303Z,11.502075
2019-05-03T12:33:06.812Z,11.351013
2019-05-03T12:34:16.336Z,11.260376
2019-05-03T12:35:26.888Z,11.18988
2019-05-03T12:36:39.037Z,11.17981
2019-05-03T12:37:45.936Z,11.099243
2019-05-03T12:38:56.462Z,10.93811
2019-05-03T12:40:05.997Z,10.736694
2019-05-03T12:41:15.508Z,10.666199
2019-05-03T12:42:26.047Z,10.625916
2019-05-03T12:43:36.559Z,10.55542
2019-05-03T12:44:46.166Z,10.535278
2019-05-03T12:45:55.627Z,10.444641
2019-05-03T12:47:06.226Z,10.384216
2019-05-03T12:48:15.687Z,10.343933
2019-05-03T12:49:25.215Z,10.30365
2019-05-03T12:50:35.746Z,10.253296
2019-05-03T12:51:46.269Z,10.172729
2019-05-03T12:52:55.783Z,10.172729
2019-05-03T12:54:05.315Z,10.122375
2019-05-03T12:55:15.839Z,10.122375
2019-05-03T12:56:32.262Z,10.162659
2019-05-03T12:57:35.910Z,10.192871
2019-05-03T12:58:46.402Z,10.192871
2019-05-03T12:59:55.956Z,10.202942
2019-05-03T13:01:05.481Z,10.313721
2019-05-03T13:02:15.982Z,10.404358
2019-05-03T13:03:25.506Z,10.494995
2019-05-03T13:04:35.037Z,10.666199
2019-05-03T13:05:45.580Z,10.756836
2019-05-03T13:06:56.078Z,10.857544
2019-05-03T13:08:06.579Z,11.018677
2019-05-03T13:09:16.109Z,10.93811
2019-05-03T13:10:26.492Z,10.92804
2019-05-03T13:11:36.560Z,10.897827
2019-05-03T13:12:52.230Z,10.917969
2019-05-03T13:13:56.146Z,10.998535
2019-05-03T13:15:05.675Z,11.018677
2019-05-03T13:16:15.385Z,11.079102
2019-05-03T13:17:25.699Z,11.099243
2019-05-03T13:18:35.523Z,10.92804
2019-05-03T13:19:45.715Z,10.776978
2019-05-03T13:20:55.766Z,10.756836
2019-05-03T13:22:05.765Z,10.736694
2019-05-03T13:23:15.306Z,10.706482
2019-05-03T13:24:26.063Z,10.68634
2019-05-03T13:25:35.701Z,10.706482
2019-05-03T13:26:45.889Z,10.706482
2019-05-03T13:27:55.422Z,10.716553
2019-05-03T13:29:06.076Z,10.736694
2019-05-03T13:30:16.447Z,10.776978
2019-05-03T13:31:25.942Z,10.837402
2019-05-03T13:32:35.472Z,10.958252
2019-05-03T13:33:45.999Z,11.069031
2019-05-03T13:34:55.528Z,11.149597
2019-05-03T13:36:06.059Z,11.18988